Diamondville, Wyoming
Current Conditions -  °F | °C
As of 2:15 PM on Friday 24 Oct 2014 (Local Time) from KEMM Reporting Station
Clear Clear  
Wind Chill: 64°   Ceiling: Unl
Heat Index: 64°   Visibility: 10mi
Dew Point: 21°   Wind: 18mph
Humidity: 19%   Direction: 260°W
Pressure: 30.27"   Gusts: 25mph
Location:  41.78°N, 110.54°W
Report Text: KEMM 242015Z AUTO 26016G22KT 10SM CLR 18/M06 A3027 RMK AO2
Loading
Personal Weather Stations






























Interactive Weather Map
Tropical Storm Tracking
New forecast layout! Learn more

10-Day Weather Forecast

Advertisements
Track Severe Weather on mobile